createdAt,value
2022-12-27T00:00:18.538Z,363.98
2022-12-27T00:02:49.065Z,382.00
2022-12-27T00:05:19.345Z,369.17
2022-12-27T00:07:52.243Z,441.40
2022-12-27T00:10:22.619Z,429.85
2022-12-27T00:12:53.075Z,395.23
2022-12-27T00:15:24.860Z,390.10
2022-12-27T00:17:58.804Z,383.85
2022-12-27T00:20:29.367Z,395.70
2022-12-27T00:23:02.891Z,401.75
2022-12-27T00:25:32.076Z,406.38
2022-12-27T00:28:01.943Z,371.45
2022-12-27T00:30:32.328Z,354.55
2022-12-27T00:33:02.782Z,364.08
2022-12-27T00:35:33.612Z,396.67
2022-12-27T00:38:04.017Z,380.25
2022-12-27T00:40:33.832Z,406.15
2022-12-27T00:43:02.879Z,366.55
2022-12-27T00:45:33.258Z,382.95
2022-12-27T00:48:04.212Z,366.55
2022-12-27T00:50:32.769Z,423.23
2022-12-27T00:53:03.403Z,315.58
2022-12-27T00:55:31.929Z,304.48
2022-12-27T00:58:02.731Z,388.60
2022-12-27T01:00:31.686Z,302.10
2022-12-27T01:03:00.641Z,293.60
2022-12-27T01:05:29.404Z,322.75
2022-12-27T01:07:59.075Z,288.15
2022-12-27T01:10:29.656Z,293.33
2022-12-27T01:12:58.432Z,261.30
2022-12-27T01:15:29.294Z,268.15
2022-12-27T01:17:59.487Z,277.85
2022-12-27T01:20:30.512Z,251.38
2022-12-27T01:23:00.007Z,268.77
2022-12-27T01:25:33.759Z,260.20
2022-12-27T01:28:03.542Z,261.77
2022-12-27T01:30:32.259Z,269.10
2022-12-27T01:33:00.968Z,293.80
2022-12-27T01:35:30.558Z,287.02
2022-12-27T01:37:59.151Z,272.95
2022-12-27T01:40:32.713Z,274.77
2022-12-27T01:43:00.286Z,282.08
2022-12-27T01:45:30.548Z,283.40
2022-12-27T01:48:02.806Z,261.13
2022-12-27T01:50:34.921Z,278.23
2022-12-27T01:53:08.576Z,284.40
2022-12-27T01:55:44.109Z,273.02
2022-12-27T01:58:16.928Z,278.25
2022-12-27T02:00:48.256Z,280.23
2022-12-27T02:03:21.266Z,280.00
2022-12-27T02:05:52.492Z,275.75
2022-12-27T02:08:34.661Z,291.48
2022-12-27T02:11:06.669Z,297.70
2022-12-27T02:13:38.452Z,259.13
2022-12-27T02:16:16.129Z,282.75
2022-12-27T02:18:44.978Z,273.88
2022-12-27T02:21:34.724Z,280.42
2022-12-27T02:24:20.940Z,287.30
2022-12-27T02:27:01.025Z,276.38
2022-12-27T02:29:56.005Z,269.65
2022-12-27T02:32:29.126Z,283.10
2022-12-27T02:35:07.682Z,280.90
2022-12-27T02:37:40.192Z,279.13
2022-12-27T02:40:30.923Z,280.35
2022-12-27T02:43:17.161Z,274.45
2022-12-27T02:46:09.049Z,254.45
2022-12-27T02:48:55.143Z,257.13
2022-12-27T02:51:50.870Z,292.10
2022-12-27T02:54:43.739Z,276.17
2022-12-27T02:57:20.484Z,268.60
2022-12-27T03:00:36.224Z,289.70
2022-12-27T03:03:42.635Z,281.20
2022-12-27T03:06:57.948Z,278.00
2022-12-27T03:10:08.678Z,268.70
2022-12-27T03:13:06.946Z,270.77
2022-12-27T03:16:03.635Z,247.55
2022-12-27T03:19:17.137Z,251.77
2022-12-27T03:22:05.742Z,274.38
2022-12-27T03:24:56.379Z,278.35
2022-12-27T03:27:30.977Z,249.30
2022-12-27T03:33:11.531Z,285.50
2022-12-27T03:36:19.121Z,260.30
2022-12-27T03:42:04.992Z,290.63
2022-12-27T03:47:25.566Z,264.92
2022-12-27T03:50:03.908Z,267.77
2022-12-27T03:52:39.834Z,271.45
2022-12-27T03:55:10.940Z,260.85
2022-12-27T03:57:40.078Z,266.33
2022-12-27T04:00:13.234Z,263.83
2022-12-27T04:02:42.326Z,270.10
2022-12-27T04:05:12.595Z,287.65
2022-12-27T04:08:00.097Z,271.25
2022-12-27T04:10:46.178Z,264.25
2022-12-27T04:13:32.394Z,285.77
2022-12-27T04:16:18.692Z,283.70
2022-12-27T04:19:05.195Z,290.05
2022-12-27T04:21:50.930Z,263.10
2022-12-27T04:24:40.085Z,276.20
2022-12-27T04:27:26.215Z,259.75
2022-12-27T04:30:12.502Z,263.83
2022-12-27T04:32:58.413Z,267.65
2022-12-27T04:35:28.529Z,255.75
2022-12-27T04:38:00.770Z,263.58
2022-12-27T04:40:51.065Z,259.45
2022-12-27T04:43:39.533Z,269.30
2022-12-27T04:46:29.671Z,274.65
2022-12-27T04:49:22.974Z,308.80
2022-12-27T04:52:09.308Z,283.60
2022-12-27T04:54:59.763Z,285.10
2022-12-27T04:57:32.227Z,341.15
2022-12-27T05:00:21.393Z,284.10
2022-12-27T05:02:58.432Z,264.45
2022-12-27T05:05:30.827Z,279.73
2022-12-27T05:08:18.231Z,270.92
2022-12-27T05:14:16.194Z,305.25
2022-12-27T05:16:51.413Z,250.65
2022-12-27T05:19:22.955Z,261.10
2022-12-27T05:22:05.406Z,269.42
2022-12-27T05:24:51.636Z,266.42
2022-12-27T05:27:21.059Z,270.25
2022-12-27T05:29:51.911Z,268.58
2022-12-27T05:32:20.659Z,277.17
2022-12-27T05:34:50.109Z,256.35
2022-12-27T05:37:19.822Z,453.33
2022-12-27T05:39:50.445Z,275.20
2022-12-27T05:42:18.876Z,493.35
2022-12-27T05:44:47.393Z,280.17
2022-12-27T05:47:18.911Z,268.27
2022-12-27T05:49:48.012Z,277.00
2022-12-27T05:52:22.999Z,305.10
2022-12-27T05:55:09.572Z,280.15
2022-12-27T05:57:50.747Z,269.65
2022-12-27T06:00:23.390Z,267.75
2022-12-27T06:02:53.594Z,286.58
2022-12-27T06:05:22.108Z,272.58
2022-12-27T06:07:52.960Z,262.58
2022-12-27T06:10:21.840Z,264.60
2022-12-27T06:12:50.215Z,253.13
2022-12-27T06:15:18.682Z,289.00
2022-12-27T06:17:54.284Z,399.10
2022-12-27T06:20:27.576Z,231.68
2022-12-27T06:22:56.303Z,254.38
2022-12-27T06:25:24.821Z,256.55
2022-12-27T06:27:53.637Z,272.33
2022-12-27T06:30:23.003Z,257.35
2022-12-27T06:32:51.667Z,269.70
2022-12-27T06:35:22.691Z,257.13
2022-12-27T06:37:55.256Z,265.92
2022-12-27T06:40:23.888Z,271.98
2022-12-27T06:43:09.210Z,278.58
2022-12-27T06:46:20.389Z,290.27
2022-12-27T06:49:03.119Z,258.00
2022-12-27T06:51:32.753Z,274.48
2022-12-27T06:54:14.047Z,268.60
2022-12-27T06:57:01.857Z,287.23
2022-12-27T06:59:36.282Z,256.35
2022-12-27T07:02:21.715Z,287.42
2022-12-27T07:04:59.773Z,277.73
2022-12-27T07:07:29.364Z,277.10
2022-12-27T07:09:59.555Z,280.20
2022-12-27T07:12:36.405Z,267.58
2022-12-27T07:15:06.143Z,253.45
2022-12-27T07:17:36.040Z,249.70
2022-12-27T07:20:04.724Z,311.45
2022-12-27T07:22:41.365Z,266.95
2022-12-27T07:25:14.454Z,260.48
2022-12-27T07:27:43.026Z,203.65
2022-12-27T07:30:12.718Z,265.63
2022-12-27T07:32:41.187Z,267.77
2022-12-27T07:35:17.901Z,267.25
2022-12-27T07:37:57.474Z,234.43
2022-12-27T07:40:33.637Z,481.15
2022-12-27T07:43:12.294Z,319.40
2022-12-27T07:45:48.693Z,242.15
2022-12-27T07:48:24.218Z,273.10
2022-12-27T07:54:39.149Z,299.63
2022-12-27T07:57:22.640Z,256.15
2022-12-27T07:59:51.953Z,289.92
2022-12-27T08:02:20.798Z,278.60
2022-12-27T08:04:49.434Z,200.77
2022-12-27T08:07:21.710Z,276.92
2022-12-27T08:09:53.126Z,187.10
2022-12-27T08:12:52.974Z,262.15
2022-12-27T08:15:21.942Z,241.60
2022-12-27T08:17:51.229Z,275.20
2022-12-27T08:20:20.371Z,273.67
2022-12-27T08:22:51.462Z,235.15
2022-12-27T08:25:21.870Z,174.32
2022-12-27T08:28:00.342Z,269.95
2022-12-27T08:30:34.077Z,202.88
2022-12-27T08:33:09.850Z,154.23
2022-12-27T08:35:55.126Z,255.45
2022-12-27T08:38:23.862Z,260.20
2022-12-27T08:40:52.587Z,293.20
2022-12-27T08:43:27.279Z,307.88
2022-12-27T08:48:39.137Z,255.63
2022-12-27T08:51:30.023Z,264.38
2022-12-27T08:54:06.992Z,167.30
2022-12-27T08:56:41.565Z,292.10
2022-12-27T08:59:12.134Z,152.30
2022-12-27T09:01:50.229Z,444.50
2022-12-27T09:11:11.219Z,171.73
2022-12-27T09:17:53.748Z,193.07
2022-12-27T09:21:09.158Z,267.95
2022-12-27T09:23:50.244Z,155.70
2022-12-27T09:26:50.837Z,211.77
2022-12-27T09:29:42.991Z,156.57
2022-12-27T09:32:30.404Z,204.90
2022-12-27T09:38:04.361Z,145.05
2022-12-27T09:40:41.380Z,146.98
2022-12-27T09:43:56.503Z,358.27
2022-12-27T09:46:48.749Z,265.43
2022-12-27T09:52:29.211Z,144.35
2022-12-27T09:55:28.643Z,140.55
2022-12-27T10:04:05.528Z,229.98
2022-12-27T10:07:14.028Z,145.27
2022-12-27T10:10:45.812Z,370.60
2022-12-27T10:13:44.665Z,202.18
2022-12-27T10:16:21.702Z,146.82
2022-12-27T10:19:19.149Z,251.65
2022-12-27T10:21:58.184Z,157.02
2022-12-27T10:24:37.261Z,150.57
2022-12-27T10:27:14.734Z,175.10
2022-12-27T10:29:44.003Z,160.73
2022-12-27T10:32:17.341Z,260.77
2022-12-27T10:34:46.319Z,142.75
2022-12-27T10:37:21.498Z,139.60
2022-12-27T10:40:17.753Z,154.23
2022-12-27T10:42:48.758Z,177.57
2022-12-27T10:45:33.578Z,162.13
2022-12-27T10:48:16.310Z,158.15
2022-12-27T10:51:25.346Z,250.80
2022-12-27T10:54:35.564Z,54.92
2022-12-27T10:57:38.352Z,67.47
2022-12-27T11:00:31.997Z,105.90
2022-12-27T11:03:06.748Z,74.95
2022-12-27T11:05:49.077Z,65.05
2022-12-27T11:08:31.788Z,65.47
2022-12-27T11:11:16.026Z,62.28
2022-12-27T11:14:10.247Z,44.58
2022-12-27T11:17:07.512Z,59.13
2022-12-27T11:19:39.413Z,53.60
2022-12-27T11:22:19.028Z,80.75
2022-12-27T11:24:49.211Z,83.20
2022-12-27T11:27:32.752Z,61.45
2022-12-27T11:30:39.053Z,165.18
2022-12-27T11:37:38.424Z,48.40
2022-12-27T11:42:47.325Z,134.50
2022-12-27T11:45:36.545Z,46.63
2022-12-27T11:48:10.223Z,97.47
2022-12-27T11:51:03.561Z,52.83
2022-12-27T11:54:05.917Z,65.55
2022-12-27T11:56:38.746Z,66.65
2022-12-27T11:59:40.482Z,52.85
2022-12-27T12:02:32.169Z,76.25
2022-12-27T12:05:20.533Z,56.05
2022-12-27T12:07:59.383Z,59.67
2022-12-27T12:10:36.465Z,132.77
2022-12-27T12:13:21.638Z,71.68
2022-12-27T12:16:06.492Z,68.90
2022-12-27T12:19:00.615Z,342.60
2022-12-27T12:21:32.067Z,111.82
2022-12-27T12:24:22.466Z,77.68
2022-12-27T12:26:58.653Z,89.40
2022-12-27T12:29:36.615Z,70.95
2022-12-27T12:32:21.884Z,68.35
2022-12-27T12:35:13.728Z,95.85
2022-12-27T12:38:01.870Z,80.53
2022-12-27T12:40:40.385Z,68.88
2022-12-27T12:43:21.790Z,74.72
2022-12-27T12:46:02.251Z,63.70
2022-12-27T12:48:55.449Z,94.15
2022-12-27T12:51:47.024Z,64.30
2022-12-27T12:54:30.189Z,52.70
2022-12-27T12:57:11.290Z,79.43
2022-12-27T13:00:04.580Z,85.00
2022-12-27T13:03:00.005Z,73.63
2022-12-27T13:05:34.604Z,173.75
2022-12-27T13:08:12.632Z,54.80
2022-12-27T13:10:53.965Z,92.05
2022-12-27T13:13:27.817Z,81.18
2022-12-27T13:16:06.039Z,93.13
2022-12-27T13:18:43.383Z,138.65
2022-12-27T13:21:18.172Z,66.60
2022-12-27T13:23:57.941Z,299.73
2022-12-27T13:26:32.330Z,72.50
2022-12-27T13:29:24.111Z,74.65
2022-12-27T13:31:59.098Z,56.35
2022-12-27T13:34:35.194Z,70.95
2022-12-27T13:37:17.272Z,92.65
2022-12-27T13:40:01.996Z,120.03
2022-12-27T13:43:07.815Z,93.43
2022-12-27T13:45:49.737Z,54.03
2022-12-27T13:48:34.878Z,75.20
2022-12-27T13:51:23.387Z,66.25
2022-12-27T13:54:13.152Z,137.98
2022-12-27T13:56:54.491Z,103.15
2022-12-27T13:59:55.587Z,57.00
2022-12-27T14:02:50.989Z,227.57
2022-12-27T14:05:52.184Z,66.82
2022-12-27T14:08:28.107Z,209.85
2022-12-27T14:11:01.140Z,71.38
2022-12-27T14:13:36.063Z,103.10
2022-12-27T14:19:14.145Z,77.55
2022-12-27T14:22:04.040Z,93.35
2022-12-27T14:25:02.493Z,322.90
2022-12-27T14:28:14.638Z,102.28
2022-12-27T14:31:24.491Z,90.85
2022-12-27T14:34:41.153Z,85.35
2022-12-27T14:37:42.691Z,73.88
2022-12-27T14:40:34.425Z,105.30
2022-12-27T14:43:41.587Z,114.68
2022-12-27T14:46:54.060Z,103.75
2022-12-27T14:49:50.462Z,84.43
2022-12-27T14:52:48.107Z,85.43
2022-12-27T14:55:49.386Z,112.53
2022-12-27T14:58:42.085Z,176.05
2022-12-27T15:01:14.923Z,156.35
2022-12-27T15:04:00.810Z,280.58
2022-12-27T15:07:10.761Z,147.70
2022-12-27T15:09:44.161Z,168.20
2022-12-27T15:12:22.798Z,108.63
2022-12-27T15:15:04.949Z,289.85
2022-12-27T15:17:47.528Z,145.88
2022-12-27T15:20:45.567Z,131.60
2022-12-27T15:23:23.215Z,146.35
2022-12-27T15:26:04.991Z,125.05
2022-12-27T15:28:45.958Z,164.27
2022-12-27T15:31:22.735Z,156.55
2022-12-27T15:33:57.044Z,151.50
2022-12-27T15:36:40.161Z,146.27
2022-12-27T15:39:47.857Z,125.20
2022-12-27T15:42:46.448Z,154.45
2022-12-27T15:45:28.922Z,143.90
2022-12-27T15:48:30.026Z,190.63
2022-12-27T15:51:02.511Z,157.30
2022-12-27T15:54:12.932Z,197.43
2022-12-27T15:57:09.033Z,146.25
2022-12-27T15:59:46.576Z,131.05
2022-12-27T16:02:33.844Z,421.17
2022-12-27T16:05:32.243Z,136.57
2022-12-27T16:08:42.557Z,134.20
2022-12-27T16:11:13.465Z,177.02
2022-12-27T16:13:45.739Z,181.13
2022-12-27T16:16:49.177Z,129.18
2022-12-27T16:19:50.675Z,118.45
2022-12-27T16:22:35.639Z,126.78
2022-12-27T16:25:31.728Z,119.95
2022-12-27T16:28:04.816Z,338.65
2022-12-27T16:30:41.842Z,171.80
2022-12-27T16:33:23.236Z,126.43
2022-12-27T16:36:13.605Z,150.18
2022-12-27T16:38:47.811Z,121.43
2022-12-27T16:41:19.784Z,144.35
2022-12-27T16:43:54.415Z,130.50
2022-12-27T16:46:52.846Z,114.47
2022-12-27T16:49:33.723Z,117.82
2022-12-27T16:52:25.752Z,296.40
2022-12-27T16:54:58.964Z,135.82
2022-12-27T16:57:44.342Z,173.48
2022-12-27T17:00:40.616Z,172.48
2022-12-27T17:03:31.772Z,181.80
2022-12-27T17:09:33.757Z,168.68
2022-12-27T17:12:11.367Z,112.03
2022-12-27T17:14:40.605Z,227.95
2022-12-27T17:17:13.387Z,130.35
2022-12-27T17:19:48.814Z,123.65
2022-12-27T17:22:18.796Z,132.95
2022-12-27T17:24:48.672Z,175.02
2022-12-27T17:27:25.545Z,120.55
2022-12-27T17:30:04.325Z,137.15
2022-12-27T17:33:01.504Z,142.27
2022-12-27T17:35:35.658Z,128.35
2022-12-27T17:38:15.722Z,121.43
2022-12-27T17:40:51.046Z,219.88
2022-12-27T17:43:46.106Z,116.22
2022-12-27T17:46:28.766Z,114.63
2022-12-27T17:48:58.052Z,289.05
2022-12-27T17:51:32.780Z,145.20
2022-12-27T17:57:50.220Z,218.68
2022-12-27T18:00:26.851Z,207.23
2022-12-27T18:03:17.656Z,155.40
2022-12-27T18:05:49.366Z,222.85
2022-12-27T18:09:30.880Z,151.93
2022-12-27T18:12:23.076Z,216.48
2022-12-27T18:15:00.476Z,187.48
2022-12-27T18:18:06.456Z,321.05
2022-12-27T18:21:13.649Z,285.10
2022-12-27T18:24:17.888Z,205.85
2022-12-27T18:26:46.454Z,268.00
2022-12-27T18:29:15.296Z,216.27
2022-12-27T18:31:50.049Z,231.05
2022-12-27T18:34:24.314Z,248.20
2022-12-27T18:36:58.191Z,280.48
2022-12-27T18:39:30.394Z,227.27
2022-12-27T18:42:00.708Z,227.70
2022-12-27T18:44:31.877Z,384.08
2022-12-27T18:47:02.267Z,169.88
2022-12-27T18:49:33.149Z,226.05
2022-12-27T18:52:02.185Z,207.70
2022-12-27T18:54:36.645Z,365.92
2022-12-27T18:57:21.812Z,329.45
2022-12-27T19:02:35.427Z,229.45
2022-12-27T19:05:31.083Z,214.32
2022-12-27T19:08:05.722Z,218.85
2022-12-27T19:13:04.757Z,259.52
2022-12-27T19:15:40.028Z,266.60
2022-12-27T19:18:23.640Z,267.77
2022-12-27T19:20:58.498Z,246.65
2022-12-27T19:23:31.927Z,276.35
2022-12-27T19:26:05.664Z,239.95
2022-12-27T19:28:35.111Z,331.67
2022-12-27T19:31:18.310Z,252.13
2022-12-27T19:33:50.915Z,267.13
2022-12-27T19:36:22.010Z,282.25
2022-12-27T19:38:50.603Z,271.33
2022-12-27T19:41:20.587Z,271.73
2022-12-27T19:43:49.398Z,273.55
2022-12-27T19:46:19.186Z,302.52
2022-12-27T19:49:07.625Z,276.13
2022-12-27T19:51:37.436Z,256.90
2022-12-27T19:54:11.781Z,262.30
2022-12-27T19:56:41.676Z,273.40
2022-12-27T19:59:16.727Z,346.33
2022-12-27T20:01:46.174Z,233.82
2022-12-27T20:04:15.196Z,268.13
2022-12-27T20:06:44.587Z,333.15
2022-12-27T20:09:16.358Z,302.10
2022-12-27T20:11:46.636Z,254.85
2022-12-27T20:14:17.622Z,277.27
2022-12-27T20:16:47.024Z,277.85
2022-12-27T20:19:23.316Z,269.52
2022-12-27T20:21:58.765Z,282.45
2022-12-27T20:24:31.881Z,264.90
2022-12-27T20:27:02.146Z,268.80
2022-12-27T20:29:31.705Z,285.83
2022-12-27T20:32:00.739Z,280.52
2022-12-27T20:34:29.687Z,261.08
2022-12-27T20:36:58.734Z,271.00
2022-12-27T20:39:28.517Z,286.25
2022-12-27T20:42:02.858Z,278.13
2022-12-27T20:44:37.090Z,278.08
2022-12-27T20:47:06.369Z,240.82
2022-12-27T20:49:37.999Z,268.60
2022-12-27T20:52:10.063Z,329.40
2022-12-27T20:54:52.583Z,256.77
2022-12-27T20:57:28.202Z,257.30
2022-12-27T21:00:26.563Z,280.90
2022-12-27T21:05:58.257Z,279.48
2022-12-27T21:08:45.786Z,251.45
2022-12-27T21:11:42.267Z,263.33
2022-12-27T21:14:33.047Z,290.58
2022-12-27T21:17:04.200Z,268.58
2022-12-27T21:19:37.452Z,281.48
2022-12-27T21:22:09.456Z,252.82
2022-12-27T21:24:39.873Z,275.30
2022-12-27T21:27:19.420Z,264.35
2022-12-27T21:29:53.994Z,322.80
2022-12-27T21:32:44.046Z,253.63
2022-12-27T21:35:17.424Z,268.50
2022-12-27T21:38:04.321Z,282.23
2022-12-27T21:40:33.471Z,270.40
2022-12-27T21:43:06.920Z,267.58
2022-12-27T21:45:37.745Z,284.42
2022-12-27T21:48:08.277Z,260.77
2022-12-27T21:50:37.608Z,279.20
2022-12-27T21:53:06.273Z,252.30
2022-12-27T21:55:35.100Z,272.33
2022-12-27T21:58:04.099Z,285.52
2022-12-27T22:00:37.186Z,251.40
2022-12-27T22:03:11.959Z,281.15
2022-12-27T22:05:54.410Z,254.38
2022-12-27T22:08:49.193Z,282.70
2022-12-27T22:11:35.919Z,311.45
2022-12-27T22:14:07.699Z,278.70
2022-12-27T22:16:42.370Z,259.17
2022-12-27T22:21:53.104Z,296.33
2022-12-27T22:24:28.263Z,281.38
2022-12-27T22:27:06.259Z,282.00
2022-12-27T22:29:52.118Z,271.50
2022-12-27T22:32:33.214Z,273.77
2022-12-27T22:35:24.853Z,262.45
2022-12-27T22:38:27.577Z,288.35
2022-12-27T22:41:42.497Z,283.60
2022-12-27T22:45:02.563Z,294.52
2022-12-27T22:48:14.956Z,265.65
2022-12-27T22:51:22.755Z,288.08
2022-12-27T22:53:52.409Z,268.70
2022-12-27T22:56:29.837Z,280.70
2022-12-27T22:59:02.433Z,277.75
2022-12-27T23:01:38.282Z,270.17
2022-12-27T23:04:19.303Z,280.25
2022-12-27T23:06:50.293Z,277.98
2022-12-27T23:09:29.094Z,284.35
2022-12-27T23:12:00.579Z,258.38
2022-12-27T23:14:29.197Z,272.17
2022-12-27T23:16:57.663Z,260.00
2022-12-27T23:19:26.161Z,286.42
2022-12-27T23:21:56.061Z,257.60
2022-12-27T23:24:25.255Z,264.63
2022-12-27T23:26:54.525Z,257.58
2022-12-27T23:29:23.080Z,288.80
2022-12-27T23:31:55.275Z,258.02
2022-12-27T23:34:28.334Z,288.10
2022-12-27T23:36:59.618Z,278.85
2022-12-27T23:39:28.487Z,288.23
2022-12-27T23:41:57.216Z,256.08
2022-12-27T23:44:33.916Z,269.63
2022-12-27T23:47:05.628Z,253.25
2022-12-27T23:49:34.713Z,262.33
2022-12-27T23:52:05.864Z,268.90
2022-12-27T23:54:34.594Z,270.67
2022-12-27T23:57:22.296Z,275.08
2022-12-27T23:59:51.676Z,276.55
